createdAt,value
2019-05-19T00:02:30.944Z,6.17
2019-05-19T00:05:00.671Z,6.10
2019-05-19T00:07:30.339Z,6.42
2019-05-19T00:10:00.336Z,5.60
2019-05-19T00:12:32.132Z,6.80
2019-05-19T00:15:02.017Z,5.97
2019-05-19T00:17:32.619Z,6.50
2019-05-19T00:20:03.176Z,6.42
2019-05-19T00:22:33.829Z,5.92
2019-05-19T00:25:04.492Z,6.17
2019-05-19T00:27:34.916Z,5.80
2019-05-19T00:30:06.929Z,6.08
2019-05-19T00:32:37.501Z,6.00
2019-05-19T00:35:09.973Z,5.83
2019-05-19T00:37:40.032Z,6.05
2019-05-19T00:40:11.892Z,6.30
2019-05-19T00:42:42.271Z,6.17
2019-05-19T00:45:14.269Z,6.72
2019-05-19T00:47:44.640Z,6.37
2019-05-19T00:50:26.531Z,6.08
2019-05-19T00:52:57.194Z,6.80
2019-05-19T00:55:27.818Z,6.03
2019-05-19T00:57:58.749Z,6.50
2019-05-19T01:06:41.172Z,7.20
2019-05-19T01:09:13.370Z,6.60
2019-05-19T01:11:46.152Z,7.42
2019-05-19T01:14:16.623Z,6.72
2019-05-19T01:16:50.688Z,7.08
2019-05-19T01:19:21.127Z,6.67
2019-05-19T01:21:52.102Z,7.08
2019-05-19T01:26:55.766Z,6.70
2019-05-19T01:29:26.257Z,6.78
2019-05-19T01:31:57.273Z,6.75
2019-05-19T01:34:30.255Z,5.85
2019-05-19T01:37:00.795Z,6.45
2019-05-19T01:39:31.183Z,6.42
2019-05-19T01:42:03.415Z,6.53
2019-05-19T01:44:34.938Z,5.92
2019-05-19T01:47:05.951Z,6.00
2019-05-19T01:49:53.942Z,5.85
2019-05-19T01:52:23.697Z,6.08
2019-05-19T01:54:53.756Z,5.70
2019-05-19T01:57:23.989Z,5.10
2019-05-19T02:00:00.470Z,5.20
2019-05-19T02:02:32.334Z,5.00
2019-05-19T02:05:02.853Z,5.08
2019-05-19T02:07:32.906Z,5.40
2019-05-19T02:10:03.486Z,5.30
2019-05-19T02:12:35.161Z,5.15
2019-05-19T02:15:05.524Z,5.00
2019-05-19T02:17:35.916Z,5.67
2019-05-19T02:20:09.164Z,5.30
2019-05-19T02:22:39.503Z,5.17
2019-05-19T02:25:10.814Z,5.35
2019-05-19T02:27:41.332Z,5.00
2019-05-19T02:30:13.148Z,5.58
2019-05-19T02:32:43.350Z,4.97
2019-05-19T02:35:17.566Z,4.80
2019-05-19T02:37:47.965Z,5.55
2019-05-19T02:40:18.398Z,5.20
2019-05-19T02:42:48.891Z,5.55
2019-05-19T02:45:19.154Z,5.30
2019-05-19T02:47:49.427Z,5.90
2019-05-19T02:50:20.058Z,6.17
2019-05-19T02:52:52.543Z,5.80
2019-05-19T02:55:23.179Z,5.53
2019-05-19T02:57:53.729Z,5.28
2019-05-19T03:00:43.512Z,5.85
2019-05-19T03:03:13.271Z,5.83
2019-05-19T03:05:49.436Z,5.95
2019-05-19T03:08:20.693Z,6.28
2019-05-19T03:10:50.452Z,6.17
2019-05-19T03:13:20.305Z,6.72
2019-05-19T03:15:50.035Z,6.28
2019-05-19T03:18:20.105Z,6.85
2019-05-19T03:20:50.818Z,7.12
2019-05-19T03:23:21.096Z,6.67
2019-05-19T03:25:51.361Z,7.10
2019-05-19T03:28:21.927Z,7.22
2019-05-19T03:31:38.612Z,6.90
2019-05-19T03:34:09.111Z,6.80
2019-05-19T03:36:39.540Z,6.42
2019-05-19T03:39:09.820Z,6.80
2019-05-19T03:41:40.083Z,6.95
2019-05-19T03:44:10.289Z,7.35
2019-05-19T03:46:40.649Z,7.15
2019-05-19T03:49:12.495Z,7.05
2019-05-19T03:51:42.305Z,7.00
2019-05-19T03:54:12.344Z,7.12
2019-05-19T03:56:42.387Z,7.50
2019-05-19T03:59:12.119Z,7.93
2019-05-19T04:01:42.604Z,7.47
2019-05-19T04:04:13.040Z,7.92
2019-05-19T04:06:44.464Z,7.90
2019-05-19T04:09:17.533Z,7.83
2019-05-19T04:11:47.882Z,7.95
2019-05-19T04:14:20.759Z,7.60
2019-05-19T04:16:51.864Z,8.33
2019-05-19T04:19:24.515Z,7.90
2019-05-19T04:21:55.267Z,7.87
2019-05-19T04:24:25.998Z,8.28
2019-05-19T04:26:56.859Z,8.58
2019-05-19T04:31:57.011Z,8.73
2019-05-19T04:34:27.668Z,8.45
2019-05-19T04:36:57.822Z,8.68
2019-05-19T04:39:27.649Z,8.80
2019-05-19T04:41:57.746Z,8.93
2019-05-19T04:44:27.757Z,8.58
2019-05-19T04:46:57.576Z,9.53
2019-05-19T04:49:27.606Z,8.33
2019-05-19T04:52:06.650Z,8.53
2019-05-19T04:54:29.225Z,8.70
2019-05-19T04:56:59.145Z,8.83
2019-05-19T04:59:30.137Z,8.28
2019-05-19T05:04:29.736Z,8.60
2019-05-19T05:06:59.888Z,8.40
2019-05-19T05:09:29.917Z,8.67
2019-05-19T05:12:00.335Z,8.43
2019-05-19T05:14:30.488Z,8.55
2019-05-19T05:17:00.634Z,8.68
2019-05-19T05:19:30.914Z,8.70
2019-05-19T05:22:01.189Z,8.33
2019-05-19T05:24:31.606Z,8.63
2019-05-19T05:27:01.966Z,8.60
2019-05-19T05:29:32.370Z,8.85
2019-05-19T05:32:02.803Z,8.95
2019-05-19T05:34:34.165Z,8.88
2019-05-19T05:37:05.059Z,9.88
2019-05-19T05:39:35.607Z,9.05
2019-05-19T05:42:05.668Z,9.70
2019-05-19T05:44:35.657Z,10.60
2019-05-19T05:47:05.552Z,10.50
2019-05-19T05:49:36.329Z,10.10
2019-05-19T05:52:06.861Z,10.40
2019-05-19T05:54:37.652Z,10.18
2019-05-19T05:57:11.161Z,11.08
2019-05-19T05:59:45.276Z,9.88
2019-05-19T06:02:28.928Z,9.98
2019-05-19T06:04:59.777Z,10.28
2019-05-19T06:07:30.340Z,10.38
2019-05-19T06:10:00.709Z,9.90
2019-05-19T06:12:31.437Z,10.20
2019-05-19T06:15:01.950Z,10.10
2019-05-19T06:17:32.805Z,10.90
2019-05-19T06:25:05.502Z,10.72
2019-05-19T06:27:35.843Z,10.53
2019-05-19T06:30:08.854Z,10.00
2019-05-19T06:32:46.664Z,9.93
2019-05-19T06:35:16.968Z,10.25
2019-05-19T06:37:47.071Z,10.40
2019-05-19T06:40:17.943Z,9.85
2019-05-19T06:45:18.828Z,11.05
2019-05-19T06:47:49.696Z,10.23
2019-05-19T06:50:20.471Z,10.75
2019-05-19T06:52:51.278Z,8.58
2019-05-19T06:55:20.860Z,9.93
2019-05-19T06:57:50.451Z,9.50
2019-05-19T07:00:20.006Z,9.33
2019-05-19T07:02:49.613Z,10.28
2019-05-19T07:05:19.325Z,10.30
2019-05-19T07:07:48.935Z,9.73
2019-05-19T07:10:18.544Z,10.75
2019-05-19T07:12:48.120Z,10.18
2019-05-19T07:15:17.703Z,10.40
2019-05-19T07:17:47.307Z,10.55
2019-05-19T07:20:16.832Z,9.58
2019-05-19T07:22:46.541Z,10.43
2019-05-19T07:25:16.115Z,11.05
2019-05-19T07:27:45.720Z,11.35
2019-05-19T07:30:16.932Z,10.45
2019-05-19T07:32:46.643Z,10.10
2019-05-19T07:35:17.309Z,10.85
2019-05-19T07:37:47.068Z,11.75
2019-05-19T07:40:17.044Z,10.98
2019-05-19T07:42:47.302Z,10.37
2019-05-19T07:45:17.792Z,11.35
2019-05-19T07:47:49.881Z,10.45
2019-05-19T07:50:19.855Z,11.55
2019-05-19T07:52:50.022Z,11.18
2019-05-19T07:55:26.337Z,10.95
2019-05-19T07:57:56.236Z,11.70
2019-05-19T08:00:27.504Z,11.45
2019-05-19T08:03:10.577Z,10.72
2019-05-19T08:05:40.562Z,10.68
2019-05-19T08:08:11.108Z,10.70
2019-05-19T08:10:41.001Z,10.50
2019-05-19T08:13:13.093Z,10.60
2019-05-19T08:15:43.665Z,10.85
2019-05-19T08:18:13.361Z,11.05
2019-05-19T08:20:42.907Z,10.70
2019-05-19T08:23:12.448Z,10.65
2019-05-19T08:25:42.049Z,10.53
2019-05-19T08:28:11.648Z,11.38
2019-05-19T08:30:41.262Z,10.72
2019-05-19T08:33:11.946Z,9.93
2019-05-19T08:35:41.502Z,9.50
2019-05-19T08:38:12.043Z,10.48
2019-05-19T08:40:41.601Z,10.30
2019-05-19T08:43:11.150Z,10.05
2019-05-19T08:45:40.756Z,9.70
2019-05-19T08:48:10.364Z,9.65
2019-05-19T08:50:39.945Z,10.10
2019-05-19T08:53:09.558Z,10.45
2019-05-19T08:55:39.165Z,9.38
2019-05-19T08:58:08.707Z,9.65
2019-05-19T09:00:40.364Z,10.20
2019-05-19T09:03:09.938Z,9.35
2019-05-19T09:05:39.463Z,10.25
2019-05-19T09:08:09.081Z,9.83
2019-05-19T09:10:44.975Z,9.20
2019-05-19T09:13:14.523Z,10.15
2019-05-19T09:15:44.150Z,9.33
2019-05-19T09:18:13.845Z,8.98
2019-05-19T09:20:43.812Z,9.28
2019-05-19T09:23:13.592Z,11.05
2019-05-19T09:25:43.556Z,9.60
2019-05-19T09:28:13.586Z,10.18
2019-05-19T09:30:43.737Z,9.40
2019-05-19T09:33:13.879Z,7.50
2019-05-19T09:35:43.831Z,7.92
2019-05-19T09:38:17.055Z,9.70
2019-05-19T09:41:01.487Z,9.68
2019-05-19T09:43:31.248Z,8.23
2019-05-19T09:46:01.358Z,9.25
2019-05-19T09:48:33.017Z,8.30
2019-05-19T09:51:03.120Z,8.38
2019-05-19T09:53:33.168Z,8.58
2019-05-19T09:56:02.961Z,8.75
2019-05-19T09:58:32.968Z,9.83
2019-05-19T10:01:02.985Z,8.73
2019-05-19T10:03:40.568Z,8.43
2019-05-19T10:06:10.256Z,8.40
2019-05-19T10:08:46.454Z,7.85
2019-05-19T10:12:00.064Z,8.38
2019-05-19T10:14:48.115Z,8.10
2019-05-19T10:17:17.788Z,7.85
2019-05-19T10:19:47.867Z,6.67
2019-05-19T10:22:17.656Z,6.58
2019-05-19T10:25:04.201Z,6.22
2019-05-19T10:27:21.629Z,7.20
2019-05-19T10:29:50.623Z,6.45
2019-05-19T10:32:21.396Z,7.30
2019-05-19T10:37:19.783Z,6.83
2019-05-19T10:39:49.449Z,6.92
2019-05-19T10:42:19.307Z,6.80
2019-05-19T10:44:48.944Z,6.67
2019-05-19T10:47:18.724Z,6.33
2019-05-19T10:49:48.400Z,7.23
2019-05-19T10:52:18.107Z,5.92
2019-05-19T10:54:49.973Z,6.92
2019-05-19T10:57:19.732Z,6.05
2019-05-19T10:59:49.415Z,6.70
2019-05-19T11:02:19.189Z,5.87
2019-05-19T11:04:49.429Z,5.42
2019-05-19T11:07:19.215Z,6.12
2019-05-19T11:09:48.807Z,6.40
2019-05-19T11:12:18.376Z,6.05
2019-05-19T11:14:47.947Z,5.17
2019-05-19T11:17:17.476Z,4.75
2019-05-19T11:19:47.062Z,4.35
2019-05-19T11:22:16.784Z,4.17
2019-05-19T11:24:46.449Z,4.22
2019-05-19T11:27:16.169Z,4.25
2019-05-19T11:29:45.898Z,5.65
2019-05-19T11:34:46.055Z,4.08
2019-05-19T11:37:15.760Z,4.72
2019-05-19T11:39:45.401Z,4.28
2019-05-19T11:42:14.921Z,4.15
2019-05-19T11:44:54.556Z,4.90
2019-05-19T11:47:24.169Z,4.30
2019-05-19T11:49:53.729Z,5.17
2019-05-19T11:52:24.377Z,5.17
2019-05-19T11:57:22.768Z,4.95
2019-05-19T11:59:52.348Z,5.40
2019-05-19T12:02:22.044Z,4.87
2019-05-19T12:04:51.636Z,5.10
2019-05-19T12:07:21.232Z,4.80
2019-05-19T12:09:50.879Z,5.17
2019-05-19T12:12:20.533Z,4.85
2019-05-19T12:14:50.135Z,4.42
2019-05-19T12:17:19.752Z,4.87
2019-05-19T12:19:49.447Z,3.77
2019-05-19T12:22:19.024Z,3.37
2019-05-19T12:24:48.815Z,3.22
2019-05-19T12:27:19.507Z,3.27
2019-05-19T12:29:49.171Z,2.92
2019-05-19T12:32:19.417Z,3.37
2019-05-19T12:34:50.253Z,5.05
2019-05-19T12:37:19.846Z,4.47
2019-05-19T12:39:49.559Z,3.35
2019-05-19T12:42:19.328Z,3.40
2019-05-19T12:44:49.088Z,3.58
2019-05-19T12:47:18.737Z,2.98
2019-05-19T12:49:48.461Z,3.00
2019-05-19T12:52:18.061Z,2.70
2019-05-19T12:54:50.862Z,2.90
2019-05-19T12:57:21.283Z,2.80
2019-05-19T13:02:19.677Z,3.50
2019-05-19T13:05:04.236Z,3.40
2019-05-19T13:07:20.683Z,3.22
2019-05-19T13:09:50.228Z,3.30
2019-05-19T13:12:19.858Z,3.77
2019-05-19T13:14:49.508Z,3.07
2019-05-19T13:17:19.108Z,3.50
2019-05-19T13:19:48.795Z,3.20
2019-05-19T13:22:19.314Z,3.20
2019-05-19T13:24:49.558Z,2.93
2019-05-19T13:27:19.317Z,2.40
2019-05-19T13:29:48.990Z,3.60
2019-05-19T13:32:18.700Z,2.80
2019-05-19T13:34:50.441Z,2.60
2019-05-19T13:37:21.203Z,2.80
2019-05-19T13:39:52.851Z,2.50
2019-05-19T13:42:22.515Z,2.20
2019-05-19T13:44:52.215Z,2.50
2019-05-19T13:47:23.707Z,2.77
2019-05-19T13:49:53.883Z,2.72
2019-05-19T13:52:23.665Z,2.77
2019-05-19T13:54:54.493Z,2.25
2019-05-19T13:57:27.613Z,2.30
2019-05-19T13:59:59.060Z,2.05
2019-05-19T14:02:28.707Z,2.70
2019-05-19T14:04:58.325Z,2.30
2019-05-19T14:07:27.962Z,2.37
2019-05-19T14:09:57.543Z,2.37
2019-05-19T14:12:27.158Z,2.23
2019-05-19T14:14:56.740Z,2.05
2019-05-19T14:17:26.490Z,2.90
2019-05-19T14:19:56.323Z,2.80
2019-05-19T14:22:36.068Z,2.90
2019-05-19T14:25:06.792Z,3.42
2019-05-19T14:27:37.615Z,3.00
2019-05-19T14:30:07.301Z,2.97
2019-05-19T14:32:36.951Z,6.83
2019-05-19T14:35:06.634Z,6.40
2019-05-19T14:37:36.208Z,4.40
2019-05-19T14:40:06.907Z,3.50
2019-05-19T14:43:01.361Z,2.75
2019-05-19T14:45:31.333Z,2.45
2019-05-19T14:48:01.009Z,2.33
2019-05-19T14:50:33.834Z,2.33
2019-05-19T14:53:03.394Z,2.10
2019-05-19T14:55:33.033Z,2.22
2019-05-19T14:58:02.709Z,2.53
2019-05-19T15:00:32.468Z,2.00
2019-05-19T15:03:02.070Z,2.17
2019-05-19T15:05:32.162Z,2.30
2019-05-19T15:08:01.849Z,1.95
2019-05-19T15:10:32.164Z,2.20
2019-05-19T15:13:01.848Z,2.40
2019-05-19T15:15:37.540Z,2.20
2019-05-19T15:18:07.231Z,2.50
2019-05-19T15:20:36.817Z,2.10
2019-05-19T15:23:06.345Z,2.00
2019-05-19T15:25:35.983Z,2.20
2019-05-19T15:28:05.755Z,2.10
2019-05-19T15:30:41.257Z,2.10
2019-05-19T15:33:10.844Z,2.35
2019-05-19T15:35:42.676Z,2.70
2019-05-19T15:38:19.610Z,2.20
2019-05-19T15:40:54.425Z,2.00
2019-05-19T15:43:25.126Z,2.05
2019-05-19T15:45:54.862Z,2.20
2019-05-19T15:48:24.452Z,2.00
2019-05-19T15:50:54.244Z,2.25
2019-05-19T15:53:23.891Z,2.15
2019-05-19T15:55:53.844Z,2.27
2019-05-19T15:58:23.773Z,1.80
2019-05-19T16:00:59.262Z,1.80
2019-05-19T16:03:28.875Z,1.80
2019-05-19T16:05:58.535Z,1.60
2019-05-19T16:08:28.290Z,2.07
2019-05-19T16:11:05.118Z,2.10
2019-05-19T16:13:34.910Z,4.72
2019-05-19T16:16:10.553Z,2.83
2019-05-19T16:18:42.779Z,2.72
2019-05-19T16:21:13.608Z,2.15
2019-05-19T16:23:43.397Z,2.15
2019-05-19T16:26:13.047Z,2.17
2019-05-19T16:28:42.795Z,2.43
2019-05-19T16:31:14.458Z,7.07
2019-05-19T16:33:44.200Z,3.30
2019-05-19T16:36:13.833Z,3.17
2019-05-19T16:38:43.431Z,2.33
2019-05-19T16:41:13.099Z,2.80
2019-05-19T16:43:42.803Z,2.40
2019-05-19T16:46:13.041Z,2.20
2019-05-19T16:48:42.806Z,2.08
2019-05-19T16:51:12.856Z,2.12
2019-05-19T16:53:44.666Z,1.90
2019-05-19T16:56:16.581Z,1.80
2019-05-19T16:58:47.201Z,2.02
2019-05-19T17:04:04.812Z,1.80
2019-05-19T17:06:36.114Z,2.37
2019-05-19T17:09:07.711Z,3.10
2019-05-19T17:11:39.193Z,2.30
2019-05-19T17:14:10.631Z,2.30
2019-05-19T17:16:49.949Z,2.40
2019-05-19T17:19:20.238Z,3.22
2019-05-19T17:21:50.028Z,2.83
2019-05-19T17:24:20.703Z,2.40
2019-05-19T17:29:30.719Z,2.12
2019-05-19T17:32:06.105Z,2.30
2019-05-19T17:34:47.457Z,2.27
2019-05-19T17:37:17.534Z,2.30
2019-05-19T17:39:47.961Z,2.20
2019-05-19T17:42:18.136Z,2.00
2019-05-19T17:44:53.690Z,2.30
2019-05-19T17:47:25.331Z,2.40
2019-05-19T17:49:55.252Z,2.40
2019-05-19T17:52:25.287Z,2.30
2019-05-19T17:54:56.204Z,2.27
2019-05-19T17:57:27.861Z,2.30
2019-05-19T17:59:58.590Z,2.37
2019-05-19T18:04:57.173Z,2.22
2019-05-19T18:07:35.276Z,2.67
2019-05-19T18:10:05.704Z,2.30
2019-05-19T18:12:35.722Z,2.40
2019-05-19T18:15:05.671Z,2.42
2019-05-19T18:17:35.736Z,2.58
2019-05-19T18:20:23.821Z,2.85
2019-05-19T18:22:52.037Z,2.20
2019-05-19T18:25:31.212Z,2.50
2019-05-19T18:28:05.365Z,2.30
2019-05-19T18:30:35.487Z,2.27
2019-05-19T18:33:06.438Z,2.35
2019-05-19T18:35:36.224Z,2.60
2019-05-19T18:38:05.882Z,2.10
2019-05-19T18:40:35.450Z,2.08
2019-05-19T18:43:05.095Z,2.17
2019-05-19T18:45:34.669Z,2.17
2019-05-19T18:48:05.392Z,2.15
2019-05-19T18:50:35.188Z,2.10
2019-05-19T18:53:05.180Z,2.30
2019-05-19T18:55:35.340Z,2.22
2019-05-19T18:58:05.389Z,2.15
2019-05-19T19:00:36.516Z,2.85
2019-05-19T19:03:06.155Z,2.70
2019-05-19T19:05:35.740Z,2.77
2019-05-19T19:08:05.320Z,2.40
2019-05-19T19:10:34.898Z,2.72
2019-05-19T19:13:05.000Z,2.30
2019-05-19T19:15:46.613Z,2.20
2019-05-19T19:18:16.307Z,2.35
2019-05-19T19:20:45.926Z,2.20
2019-05-19T19:23:15.466Z,2.05
2019-05-19T19:26:07.275Z,2.00
2019-05-19T19:28:37.990Z,2.12
2019-05-19T19:33:51.354Z,2.02
2019-05-19T19:36:22.792Z,2.15
2019-05-19T19:38:52.529Z,2.20
2019-05-19T19:41:23.236Z,2.00
2019-05-19T19:43:52.943Z,1.70
2019-05-19T19:46:24.026Z,4.35
2019-05-19T19:48:58.559Z,4.20
2019-05-19T19:51:29.941Z,2.58
2019-05-19T19:54:03.079Z,2.40
2019-05-19T19:59:53.593Z,2.15
2019-05-19T20:02:25.154Z,2.65
2019-05-19T20:04:55.408Z,2.22
2019-05-19T20:07:25.047Z,2.52
2019-05-19T20:09:59.280Z,2.77
2019-05-19T20:12:31.086Z,3.02
2019-05-19T20:15:03.874Z,3.05
2019-05-19T20:17:43.598Z,2.62
2019-05-19T20:20:13.589Z,2.83
2019-05-19T20:22:45.303Z,3.85
2019-05-19T20:25:15.143Z,3.15
2019-05-19T20:27:45.369Z,2.87
2019-05-19T20:30:15.142Z,2.60
2019-05-19T20:32:47.871Z,2.72
2019-05-19T20:35:18.091Z,2.67
2019-05-19T20:37:49.850Z,2.55
2019-05-19T20:40:19.628Z,4.35
2019-05-19T20:42:49.561Z,5.22
2019-05-19T20:45:19.272Z,2.97
2019-05-19T20:47:48.860Z,3.40
2019-05-19T20:50:18.468Z,3.70
2019-05-19T20:52:48.103Z,2.83
2019-05-19T20:55:17.748Z,3.05
2019-05-19T20:57:47.385Z,2.98
2019-05-19T21:00:16.913Z,3.30
2019-05-19T21:02:46.612Z,4.00
2019-05-19T21:05:16.137Z,4.42
2019-05-19T21:07:45.835Z,4.55
2019-05-19T21:10:15.461Z,5.33
2019-05-19T21:12:47.371Z,5.85
2019-05-19T21:15:16.914Z,5.78
2019-05-19T21:17:47.441Z,6.17
2019-05-19T21:20:17.176Z,6.08
2019-05-19T21:22:46.801Z,6.30
2019-05-19T21:25:16.654Z,7.25
2019-05-19T21:30:31.816Z,6.75
2019-05-19T21:33:01.576Z,7.05
2019-05-19T21:35:31.153Z,6.47
2019-05-19T21:38:00.687Z,7.17
2019-05-19T21:40:31.241Z,6.97
2019-05-19T21:43:00.891Z,7.90
2019-05-19T21:45:30.428Z,6.78
2019-05-19T21:48:00.057Z,7.08
2019-05-19T21:50:29.685Z,7.53
2019-05-19T21:52:59.270Z,7.55
2019-05-19T21:55:28.967Z,7.80
2019-05-19T21:57:58.549Z,7.10
2019-05-19T22:00:31.155Z,7.65
2019-05-19T22:03:00.796Z,7.42
2019-05-19T22:05:30.360Z,7.22
2019-05-19T22:08:05.445Z,7.20
2019-05-19T22:10:35.005Z,7.85
2019-05-19T22:13:04.873Z,7.53
2019-05-19T22:15:34.465Z,7.00
2019-05-19T22:18:04.028Z,6.97
2019-05-19T22:20:33.596Z,6.60
2019-05-19T22:23:03.153Z,7.33
2019-05-19T22:25:34.337Z,6.62
2019-05-19T22:28:23.181Z,7.08
2019-05-19T22:30:52.745Z,7.03
2019-05-19T22:33:22.381Z,6.15
2019-05-19T22:35:53.236Z,5.75
2019-05-19T22:38:24.083Z,5.97
2019-05-19T22:40:53.959Z,5.72
2019-05-19T22:43:23.523Z,5.53
2019-05-19T22:46:00.154Z,5.75
2019-05-19T22:48:30.081Z,6.45
2019-05-19T22:51:00.040Z,5.83
2019-05-19T22:56:02.785Z,5.35
2019-05-19T22:58:32.492Z,6.60
2019-05-19T23:01:02.136Z,5.78
2019-05-19T23:03:31.753Z,5.60
2019-05-19T23:06:01.370Z,5.17
2019-05-19T23:08:30.929Z,5.15
2019-05-19T23:11:00.520Z,5.87
2019-05-19T23:13:30.184Z,5.33
2019-05-19T23:16:00.385Z,5.58
2019-05-19T23:18:30.098Z,5.80
2019-05-19T23:21:00.691Z,5.65
2019-05-19T23:23:30.312Z,5.45
2019-05-19T23:25:59.886Z,4.90
2019-05-19T23:28:35.603Z,6.20
2019-05-19T23:31:05.231Z,5.58
2019-05-19T23:33:34.783Z,5.72
2019-05-19T23:36:04.447Z,5.75
2019-05-19T23:38:33.979Z,5.28
2019-05-19T23:41:03.574Z,5.65
2019-05-19T23:43:34.127Z,5.35
2019-05-19T23:46:03.684Z,5.08
2019-05-19T23:48:33.320Z,5.28
2019-05-19T23:51:02.844Z,4.90
2019-05-19T23:53:32.423Z,4.67
2019-05-19T23:56:01.953Z,4.87
2019-05-19T23:58:31.515Z,4.97
